This is the latest recevied weather packets stored in our database for station/object N3WMC. If no packets are shown the sender has not sent any weather packets the latest 10 day(s).
| Time | Temp. | Humidity | Pressure | Rain* | Wind** | Luminosity | Snow |
|---|---|---|---|---|---|---|---|
| 1787836735 | 23.33° C | 84% | 1015.7 hPa | 0 mm | - | 283 W/m² | - |
| 1787836430 | 22.22° C | 87% | 1015.9 hPa | 0 mm | - | 278 W/m² | - |
| 1787836125 | 21.67° C | 88% | 1016 hPa | 0 mm | - | 262 W/m² | - |
| 1787835821 | 22.22° C | 86% | 1016.1 hPa | 0 mm | - | 264 W/m² | - |
| 1787835520 | 21.67° C | 91% | 1016 hPa | 0 mm | - | 258 W/m² | - |
| 1787835216 | 20° C | 95% | 1016.1 hPa | 0 mm | - | 260 W/m² | - |
| 1787834915 | 19.44° C | 97% | 1016.1 hPa | 0 mm | - | 142 W/m² | - |
| 1787834615 | 19.44° C | 97% | 1015.9 hPa | 0 mm | - | 88 W/m² | - |
| 1787834310 | 19.44° C | 97% | 1016 hPa | 0 mm | - | 71 W/m² | - |
| 1787834006 | 19.44° C | 98% | 1016.1 hPa | 0 mm | - | 90 W/m² | - |
| 1787833701 | 19.44° C | 99% | 1016.3 hPa | 0 mm | - | 186 W/m² | - |
| 1787833396 | 19.44° C | 99% | 1016.1 hPa | 0 mm | - | 211 W/m² | - |
| 1787833092 | 18.89° C | 99% | 1016.1 hPa | 0 mm | - | 146 W/m² | - |
| 1787832787 | 18.89° C | 99% | 1016.1 hPa | 0 mm | - | 163 W/m² | - |
| 1787832482 | 17.78° C | 99% | 1016 hPa | 0 mm | - | 99 W/m² | - |
| 1787832181 | 17.22° C | 99% | 1016.1 hPa | 0 mm | - | 57 W/m² | - |
| 1787831879 | 17.22° C | 99% | 1015.7 hPa | 0 mm | - | 51 W/m² | - |
| 1787831569 | 17.22° C | 99% | 1015.7 hPa | 0 mm | - | 33 W/m² | - |
| 1787831268 | 17.22° C | 99% | 1015.8 hPa | 0 mm | - | 20 W/m² | - |
| 1787830965 | 17.22° C | 99% | 1015.8 hPa | 0 mm | - | 15 W/m² | - |
| 1787830663 | 17.22° C | 99% | 1015.8 hPa | 0 mm | - | 13 W/m² | - |
| 1787830358 | 17.22° C | 99% | 1015.7 hPa | 0 mm | - | 11 W/m² | - |
| 1787830057 | 17.22° C | 99% | 1015.9 hPa | 0 mm | - | 9 W/m² | - |
| 1787829756 | 17.78° C | 99% | 1015.6 hPa | 0 mm | - | 9 W/m² | - |
| 1787829451 | 17.78° C | 99% | 1015.7 hPa | 1.27 mm | - | 7 W/m² | - |
* Rain latest hour (hover to see other rain measurements)
** Current wind speed in m/s (hover to see current wind gust speed)